Time;durP1;ratioP1;P1;durP2;ratioP2;P2;SDS_P1;SDS_P2;PMS_P1;PMS_P2;Temp;Humidity;BMP_temperature;BMP_pressure;BME280_temperature;BME280_humidity;BME280_pressure;Samples;Min_cycle;Max_cycle;Signal;HPM_P1;HPM_P2
2022/03/10 00:00:03;;;;;;;34.35;19.42;;;;;;;;;;5019798;28;20147;-69
2022/03/10 00:02:28;;;;;;;39.88;20.45;;;;;;;;;;5017777;28;20033;-69
2022/03/10 00:04:53;;;;;;;37.22;19.38;;;;;;;;;;5017272;28;20105;-69
2022/03/10 00:07:21;;;;;;;41.40;20.70;;;;;;;;;;5019357;28;20029;-69
2022/03/10 00:09:47;;;;;;;43.22;21.17;;;;;;;;;;5019469;28;20037;-69
2022/03/10 00:12:12;;;;;;;40.33;22.40;;;;;;;;;;5010760;28;20084;-69
2022/03/10 00:14:37;;;;;;;45.92;21.52;;;;;;;;;;5017848;28;20044;-69
2022/03/10 00:17:03;;;;;;;44.67;21.20;;;;;;;;;;4991458;28;20037;-69
2022/03/10 00:19:31;;;;;;;37.83;20.20;;;;;;;;;;5018147;28;21832;-69
2022/03/10 00:21:56;;;;;;;37.95;20.23;;;;;;;;;;5034418;28;20033;-68
2022/03/10 00:24:22;;;;;;;34.60;19.48;;;;;;;;;;5000543;28;20106;-68
2022/03/10 00:26:47;;;;;;;37.60;19.33;;;;;;;;;;5012592;28;20021;-68
2022/03/10 00:29:14;;;;;;;36.75;20.73;;;;;;;;;;5017052;28;20033;-68
2022/03/10 00:31:40;;;;;;;35.33;20.17;;;;;;;;;;5017318;28;20043;-69
2022/03/10 00:34:06;;;;;;;37.63;20.30;;;;;;;;;;5013209;28;20040;-69
2022/03/10 00:36:31;;;;;;;40.22;20.75;;;;;;;;;;5016913;28;20204;-68
2022/03/10 00:38:57;;;;;;;40.67;20.80;;;;;;;;;;5016809;28;20040;-69
2022/03/10 00:41:22;;;;;;;43.55;20.88;;;;;;;;;;5016618;28;20521;-68
2022/03/10 00:43:47;;;;;;;36.40;20.02;;;;;;;;;;5019092;28;20351;-69
2022/03/10 00:46:12;;;;;;;41.85;21.15;;;;;;;;;;5018176;28;20033;-69
2022/03/10 00:48:38;;;;;;;35.58;20.95;;;;;;;;;;5019302;28;20071;-69
2022/03/10 00:51:05;;;;;;;35.97;20.85;;;;;;;;;;5018175;28;20042;-68
2022/03/10 00:53:30;;;;;;;37.38;19.95;;;;;;;;;;5018566;28;20136;-68
2022/03/10 00:55:55;;;;;;;37.90;20.45;;;;;;;;;;5017819;28;20228;-68
2022/03/10 00:58:21;;;;;;;38.55;20.38;;;;;;;;;;5018270;28;20651;-69
2022/03/10 01:00:47;;;;;;;39.63;20.27;;;;;;;;;;5017193;28;20731;-69
2022/03/10 01:03:14;;;;;;;36.45;19.88;;;;;;;;;;5017961;28;20124;-68
2022/03/10 01:05:40;;;;;;;37.72;20.65;;;;;;;;;;5016802;28;20033;-69
2022/03/10 01:08:05;;;;;;;37.97;19.13;;;;;;;;;;5015594;28;20492;-69
2022/03/10 01:10:31;;;;;;;36.15;19.95;;;;;;;;;;5018414;28;20044;-69
2022/03/10 01:12:57;;;;;;;34.15;19.42;;;;;;;;;;5017889;28;20039;-69
2022/03/10 01:15:26;;;;;;;35.80;20.30;;;;;;;;;;5018189;28;20037;-69
2022/03/10 01:17:52;;;;;;;39.83;19.95;;;;;;;;;;5014751;28;20037;-69
2022/03/10 01:20:18;;;;;;;35.72;20.00;;;;;;;;;;5017340;28;20078;-68
2022/03/10 01:22:46;;;;;;;36.33;20.27;;;;;;;;;;5016520;28;20434;-70
2022/03/10 01:25:12;;;;;;;38.47;21.65;;;;;;;;;;5018112;28;20033;-68
2022/03/10 01:27:42;;;;;;;37.75;20.05;;;;;;;;;;5016622;28;20068;-69
2022/03/10 01:30:08;;;;;;;37.67;19.50;;;;;;;;;;5018614;28;20068;-69
2022/03/10 01:32:34;;;;;;;39.65;21.52;;;;;;;;;;5016738;28;20037;-68
2022/03/10 01:35:02;;;;;;;37.65;21.25;;;;;;;;;;5016036;28;20044;-67
2022/03/10 01:37:29;;;;;;;38.55;21.50;;;;;;;;;;5016619;28;20488;-68
2022/03/10 01:39:57;;;;;;;40.10;22.00;;;;;;;;;;5014957;28;20399;-68
2022/03/10 01:42:25;;;;;;;36.80;20.80;;;;;;;;;;5016061;28;20030;-68
2022/03/10 01:44:54;;;;;;;36.92;21.23;;;;;;;;;;5017512;28;20151;-69
2022/03/10 01:47:19;;;;;;;37.08;20.45;;;;;;;;;;5016829;28;20021;-68
2022/03/10 01:49:44;;;;;;;37.45;20.98;;;;;;;;;;5016954;28;20110;-68
2022/03/10 01:52:12;;;;;;;38.33;21.30;;;;;;;;;;5014885;28;20064;-69
2022/03/10 01:54:40;;;;;;;40.22;22.35;;;;;;;;;;5009730;28;20041;-68
2022/03/10 01:57:05;;;;;;;41.67;22.02;;;;;;;;;;5015412;28;20029;-68
2022/03/10 01:59:32;;;;;;;40.65;22.35;;;;;;;;;;5032749;28;20170;-68
2022/03/10 02:01:57;;;;;;;42.72;23.17;;;;;;;;;;5015075;28;20025;-67
2022/03/10 02:04:22;;;;;;;43.95;23.30;;;;;;;;;;5031454;28;20033;-67
2022/03/10 02:06:51;;;;;;;45.30;23.42;;;;;;;;;;5016453;28;20045;-68
2022/03/10 02:12:04;;;;;;;40.95;21.23;;;;;;;;;;5017016;28;20039;-69
2022/03/10 02:17:19;;;;;;;46.25;22.38;;;;;;;;;;5016609;28;20024;-69
2022/03/10 02:19:45;;;;;;;45.95;24.20;;;;;;;;;;5007029;28;20063;-70
2022/03/10 02:22:14;;;;;;;40.45;21.83;;;;;;;;;;5016748;28;20057;-70
2022/03/10 02:24:40;;;;;;;37.30;21.92;;;;;;;;;;5014730;28;20175;-69
2022/03/10 02:27:19;;;;;;;40.60;23.33;;;;;;;;;;5017400;28;20098;-70
2022/03/10 02:29:44;;;;;;;42.28;22.33;;;;;;;;;;5015827;28;20035;-70
2022/03/10 02:32:10;;;;;;;46.97;23.85;;;;;;;;;;5017024;28;20529;-68
2022/03/10 02:34:37;;;;;;;48.88;24.63;;;;;;;;;;5015347;28;22040;-67
2022/03/10 02:37:03;;;;;;;51.80;26.08;;;;;;;;;;5016221;28;20323;-68
2022/03/10 02:39:31;;;;;;;52.28;25.60;;;;;;;;;;5014481;28;20037;-68
2022/03/10 02:41:56;;;;;;;52.55;25.13;;;;;;;;;;5016693;28;20025;-68
2022/03/10 02:44:21;;;;;;;47.97;24.77;;;;;;;;;;5014626;28;20043;-68
2022/03/10 02:46:49;;;;;;;46.05;25.65;;;;;;;;;;5015570;28;20021;-69
2022/03/10 02:49:14;;;;;;;52.03;25.55;;;;;;;;;;5008139;28;20040;-69
2022/03/10 02:51:40;;;;;;;46.58;25.15;;;;;;;;;;5027003;28;20052;-69
2022/03/10 02:54:08;;;;;;;43.70;24.33;;;;;;;;;;5015025;28;20032;-69
2022/03/10 02:56:35;;;;;;;45.60;24.20;;;;;;;;;;5015603;28;20184;-69
2022/03/10 02:59:02;;;;;;;46.25;23.48;;;;;;;;;;5013297;28;20107;-69
2022/03/10 03:01:28;;;;;;;42.90;24.45;;;;;;;;;;5016119;28;20131;-69
2022/03/10 03:03:55;;;;;;;49.47;23.63;;;;;;;;;;5026432;28;20492;-70
2022/03/10 03:06:23;;;;;;;40.42;23.92;;;;;;;;;;5013619;28;20125;-70
2022/03/10 03:08:48;;;;;;;46.20;24.40;;;;;;;;;;5015889;28;20033;-68
2022/03/10 03:11:14;;;;;;;48.00;25.92;;;;;;;;;;5016608;28;20025;-70
2022/03/10 03:13:39;;;;;;;48.30;25.50;;;;;;;;;;5025338;28;20175;-69
2022/03/10 03:16:05;;;;;;;45.53;24.55;;;;;;;;;;4988835;28;20045;-69
2022/03/10 03:18:30;;;;;;;46.13;24.52;;;;;;;;;;5015373;28;20048;-70
2022/03/10 03:20:56;;;;;;;46.17;24.45;;;;;;;;;;5015162;28;20041;-69
2022/03/10 03:23:23;;;;;;;45.03;24.40;;;;;;;;;;5014913;28;20037;-69
2022/03/10 03:25:49;;;;;;;45.95;25.38;;;;;;;;;;5016751;28;20478;-69
2022/03/10 03:28:14;;;;;;;52.90;26.33;;;;;;;;;;5015427;28;20040;-69
2022/03/10 03:30:39;;;;;;;50.67;25.48;;;;;;;;;;5018012;28;20052;-70
2022/03/10 03:33:05;;;;;;;46.63;24.30;;;;;;;;;;5019257;28;20041;-69
2022/03/10 03:35:31;;;;;;;46.00;25.08;;;;;;;;;;5019529;28;20115;-69
2022/03/10 03:37:57;;;;;;;54.35;24.58;;;;;;;;;;5013156;28;20037;-69
2022/03/10 03:40:23;;;;;;;45.47;25.60;;;;;;;;;;5019000;28;20496;-70
2022/03/10 03:42:48;;;;;;;48.05;25.52;;;;;;;;;;5035304;28;20056;-70
2022/03/10 03:45:13;;;;;;;55.15;27.30;;;;;;;;;;5035145;28;20379;-70
2022/03/10 03:47:39;;;;;;;50.38;26.75;;;;;;;;;;5019508;28;20162;-70
2022/03/10 03:50:05;;;;;;;57.65;28.08;;;;;;;;;;5019437;28;20029;-69
2022/03/10 03:52:30;;;;;;;56.92;29.95;;;;;;;;;;5020139;28;22586;-69
2022/03/10 03:54:56;;;;;;;60.03;30.25;;;;;;;;;;5020590;28;20465;-69
2022/03/10 03:57:22;;;;;;;55.38;28.55;;;;;;;;;;5021656;28;20084;-68
2022/03/10 03:59:47;;;;;;;52.85;28.20;;;;;;;;;;5019093;28;20145;-69
2022/03/10 04:02:15;;;;;;;51.33;26.77;;;;;;;;;;4995711;28;20082;-68
2022/03/10 04:04:40;;;;;;;51.33;26.08;;;;;;;;;;5018988;28;20033;-68
2022/03/10 04:07:06;;;;;;;52.15;27.30;;;;;;;;;;5018207;28;20057;-68
2022/03/10 04:09:36;;;;;;;50.25;26.42;;;;;;;;;;5013156;28;20188;-68
2022/03/10 04:12:02;;;;;;;47.08;25.27;;;;;;;;;;5019058;28;20190;-68
2022/03/10 04:14:27;;;;;;;42.33;24.23;;;;;;;;;;5028591;28;20139;-69
2022/03/10 04:16:56;;;;;;;46.63;24.42;;;;;;;;;;5001147;28;20041;-69
2022/03/10 04:19:21;;;;;;;42.85;23.55;;;;;;;;;;5019469;28;20040;-70
2022/03/10 04:21:47;;;;;;;44.40;24.42;;;;;;;;;;5019333;28;20029;-70
2022/03/10 04:24:12;;;;;;;41.75;24.00;;;;;;;;;;5019518;28;20148;-69
2022/03/10 04:26:40;;;;;;;44.33;24.63;;;;;;;;;;5019247;28;20532;-69
2022/03/10 04:29:06;;;;;;;48.10;25.08;;;;;;;;;;5012226;28;20118;-69
2022/03/10 04:31:34;;;;;;;47.35;24.38;;;;;;;;;;5019089;28;20017;-68
2022/03/10 04:34:02;;;;;;;44.05;24.55;;;;;;;;;;5016470;28;20028;-68
2022/03/10 04:36:30;;;;;;;41.63;24.00;;;;;;;;;;5013467;28;20049;-68
2022/03/10 04:38:55;;;;;;;41.22;23.52;;;;;;;;;;5018500;28;20032;-68
2022/03/10 04:41:20;;;;;;;42.45;23.52;;;;;;;;;;5016434;28;20324;-68
2022/03/10 04:43:46;;;;;;;42.85;23.60;;;;;;;;;;5018704;28;20312;-69
2022/03/10 04:46:11;;;;;;;42.90;24.02;;;;;;;;;;5017321;28;20029;-69
2022/03/10 04:48:36;;;;;;;43.92;23.90;;;;;;;;;;5017809;28;20067;-69
2022/03/10 04:51:02;;;;;;;42.25;24.38;;;;;;;;;;5018284;28;20033;-68
2022/03/10 04:53:27;;;;;;;43.90;25.02;;;;;;;;;;5019734;28;20040;-68
2022/03/10 04:55:53;;;;;;;41.05;24.13;;;;;;;;;;5011830;28;20895;-68
2022/03/10 04:58:21;;;;;;;44.00;23.55;;;;;;;;;;5019002;28;20064;-69
2022/03/10 05:00:49;;;;;;;44.80;23.85;;;;;;;;;;5019429;28;20118;-69
2022/03/10 05:03:15;;;;;;;43.17;22.90;;;;;;;;;;5018842;28;20041;-70
2022/03/10 05:05:43;;;;;;;40.58;23.10;;;;;;;;;;5018448;28;20037;-68
2022/03/10 05:08:11;;;;;;;42.05;23.50;;;;;;;;;;5017655;28;20261;-69
2022/03/10 05:10:39;;;;;;;44.40;23.63;;;;;;;;;;5018756;28;20413;-68
2022/03/10 05:13:04;;;;;;;40.72;23.13;;;;;;;;;;5016859;28;21838;-68
2022/03/10 05:15:33;;;;;;;44.58;23.45;;;;;;;;;;5031972;28;20408;-69
2022/03/10 05:18:00;;;;;;;41.80;22.75;;;;;;;;;;5018894;28;20037;-69
2022/03/10 05:20:28;;;;;;;45.60;25.15;;;;;;;;;;5012500;28;20033;-69
2022/03/10 05:22:58;;;;;;;46.70;24.65;;;;;;;;;;5018032;28;20559;-68
2022/03/10 05:25:34;;;;;;;43.53;23.95;;;;;;;;;;5011211;28;20047;-68
2022/03/10 05:28:01;;;;;;;42.70;23.70;;;;;;;;;;5004958;28;20239;-69
2022/03/10 05:30:29;;;;;;;43.20;23.25;;;;;;;;;;5009924;28;20428;-70
2022/03/10 05:32:55;;;;;;;45.08;25.02;;;;;;;;;;5010945;28;20044;-69
2022/03/10 05:35:20;;;;;;;43.67;23.70;;;;;;;;;;5017556;28;20033;-69
2022/03/10 05:37:49;;;;;;;42.65;24.40;;;;;;;;;;5017919;28;20033;-71
2022/03/10 05:40:16;;;;;;;44.30;24.27;;;;;;;;;;5010595;28;20225;-70
2022/03/10 05:42:41;;;;;;;47.75;25.70;;;;;;;;;;5014629;28;20029;-70
2022/03/10 05:45:07;;;;;;;49.03;25.50;;;;;;;;;;5017131;28;20070;-69
2022/03/10 05:47:34;;;;;;;49.97;26.73;;;;;;;;;;5017482;28;20044;-70
2022/03/10 05:50:00;;;;;;;53.67;27.73;;;;;;;;;;5017603;28;20040;-70
2022/03/10 05:52:28;;;;;;;50.42;25.88;;;;;;;;;;5016524;28;20053;-70
2022/03/10 05:54:56;;;;;;;44.92;24.63;;;;;;;;;;5016680;28;20271;-70
2022/03/10 05:57:22;;;;;;;47.80;24.90;;;;;;;;;;5032442;28;20025;-70
2022/03/10 05:59:48;;;;;;;46.65;25.27;;;;;;;;;;5016339;28;20045;-70
2022/03/10 06:02:15;;;;;;;44.88;25.70;;;;;;;;;;5014690;28;20106;-69
2022/03/10 06:04:40;;;;;;;53.28;26.15;;;;;;;;;;4995366;28;20036;-70
2022/03/10 06:07:08;;;;;;;47.50;25.20;;;;;;;;;;5017403;28;20045;-70
2022/03/10 06:09:33;;;;;;;44.97;24.75;;;;;;;;;;5017351;28;20060;-69
2022/03/10 06:11:59;;;;;;;49.00;26.13;;;;;;;;;;5017397;28;20087;-69
2022/03/10 06:14:25;;;;;;;46.72;25.35;;;;;;;;;;5015662;28;20179;-67
2022/03/10 06:16:50;;;;;;;44.28;24.85;;;;;;;;;;5016962;28;20039;-68
2022/03/10 06:19:16;;;;;;;42.97;25.80;;;;;;;;;;5015845;28;20039;-69
2022/03/10 06:21:41;;;;;;;46.55;25.45;;;;;;;;;;5017711;28;20484;-70
2022/03/10 06:24:07;;;;;;;45.65;25.15;;;;;;;;;;5015673;28;20029;-69
2022/03/10 06:26:33;;;;;;;44.40;25.80;;;;;;;;;;5026410;28;20055;-68
2022/03/10 06:28:58;;;;;;;51.50;27.27;;;;;;;;;;5015297;28;20544;-69
2022/03/10 06:31:24;;;;;;;47.85;26.48;;;;;;;;;;5015442;28;20951;-70
2022/03/10 06:33:51;;;;;;;47.90;26.05;;;;;;;;;;5013601;28;20041;-69
2022/03/10 06:36:16;;;;;;;51.22;26.58;;;;;;;;;;5016272;28;20201;-68
2022/03/10 06:38:42;;;;;;;53.42;27.52;;;;;;;;;;5015920;28;20170;-69
2022/03/10 06:41:07;;;;;;;51.13;27.35;;;;;;;;;;5013844;28;20291;-68
2022/03/10 06:43:33;;;;;;;54.05;27.08;;;;;;;;;;5015398;28;20041;-68
2022/03/10 06:45:58;;;;;;;52.03;25.40;;;;;;;;;;5014658;28;20036;-68
2022/03/10 06:48:23;;;;;;;52.38;26.42;;;;;;;;;;5030155;28;20414;-69
2022/03/10 06:50:51;;;;;;;51.85;26.27;;;;;;;;;;5016892;28;20040;-68
2022/03/10 06:53:19;;;;;;;49.42;26.17;;;;;;;;;;4991986;28;20034;-68
2022/03/10 06:55:44;;;;;;;47.33;25.92;;;;;;;;;;5013107;28;22072;-68
2022/03/10 06:58:10;;;;;;;45.95;25.15;;;;;;;;;;4992709;28;20041;-69
2022/03/10 07:00:35;;;;;;;47.08;25.67;;;;;;;;;;5026139;28;20057;-67
2022/03/10 07:03:01;;;;;;;49.17;25.83;;;;;;;;;;5015089;28;20041;-70
2022/03/10 07:05:28;;;;;;;52.45;26.88;;;;;;;;;;5013744;28;20033;-69
2022/03/10 07:07:56;;;;;;;45.83;24.48;;;;;;;;;;4997140;28;21296;-69
2022/03/10 07:10:22;;;;;;;49.22;24.98;;;;;;;;;;5003390;28;20095;-68
2022/03/10 07:12:50;;;;;;;45.50;24.35;;;;;;;;;;5015008;28;20580;-69
2022/03/10 07:15:18;;;;;;;46.95;25.98;;;;;;;;;;5011602;28;20037;-67
2022/03/10 07:17:43;;;;;;;49.20;25.00;;;;;;;;;;5005993;28;20315;-68
2022/03/10 07:20:09;;;;;;;52.40;26.27;;;;;;;;;;5010996;28;20123;-69
2022/03/10 07:22:37;;;;;;;49.35;25.98;;;;;;;;;;5014372;28;20392;-68
2022/03/10 07:25:03;;;;;;;55.00;27.83;;;;;;;;;;5028940;28;20063;-69
2022/03/10 07:27:28;;;;;;;49.63;27.08;;;;;;;;;;5002900;28;20133;-68
2022/03/10 07:29:54;;;;;;;52.15;26.70;;;;;;;;;;5014472;28;20044;-69
2022/03/10 07:32:19;;;;;;;44.78;24.75;;;;;;;;;;5016629;28;20516;-69
2022/03/10 07:34:47;;;;;;;51.83;27.42;;;;;;;;;;5015540;28;21830;-69
2022/03/10 07:37:16;;;;;;;52.80;26.50;;;;;;;;;;5014885;28;20282;-69
2022/03/10 07:39:41;;;;;;;44.50;25.33;;;;;;;;;;5012429;28;20034;-69
2022/03/10 07:42:07;;;;;;;51.95;26.65;;;;;;;;;;5028688;28;20040;-69
2022/03/10 07:44:32;;;;;;;46.38;25.55;;;;;;;;;;5015555;28;20053;-68
2022/03/10 07:46:57;;;;;;;46.03;25.77;;;;;;;;;;5015932;28;20039;-68
2022/03/10 07:49:22;;;;;;;45.63;24.92;;;;;;;;;;5015871;28;20235;-68
2022/03/10 07:51:48;;;;;;;45.95;25.58;;;;;;;;;;5013807;28;20033;-67
2022/03/10 07:54:13;;;;;;;48.47;26.73;;;;;;;;;;5013584;28;20069;-67
2022/03/10 07:56:38;;;;;;;42.03;24.92;;;;;;;;;;5015975;28;20470;-69
2022/03/10 07:59:04;;;;;;;39.97;23.63;;;;;;;;;;5006587;28;20037;-69
2022/03/10 08:01:31;;;;;;;39.50;24.63;;;;;;;;;;5015122;28;20072;-69
2022/03/10 08:03:56;;;;;;;39.75;24.42;;;;;;;;;;5014320;28;20518;-68
2022/03/10 08:06:22;;;;;;;44.05;25.10;;;;;;;;;;5014231;28;20120;-69
2022/03/10 08:08:47;;;;;;;44.78;25.13;;;;;;;;;;4993258;28;20043;-72
2022/03/10 08:11:12;;;;;;;42.63;25.60;;;;;;;;;;5014281;28;20033;-68
2022/03/10 08:13:40;;;;;;;48.85;26.35;;;;;;;;;;5013076;28;20434;-69
2022/03/10 08:16:08;;;;;;;42.50;25.40;;;;;;;;;;5013602;28;20641;-69
2022/03/10 08:18:33;;;;;;;51.08;26.73;;;;;;;;;;5016614;28;20049;-69
2022/03/10 08:20:59;;;;;;;43.25;25.60;;;;;;;;;;5017627;28;20323;-69
2022/03/10 08:23:27;;;;;;;43.00;25.67;;;;;;;;;;4994340;28;20029;-69
2022/03/10 08:25:55;;;;;;;45.38;25.00;;;;;;;;;;5016872;28;20032;-69
2022/03/10 08:28:21;;;;;;;48.78;27.67;;;;;;;;;;5009285;28;20583;-68
2022/03/10 08:30:47;;;;;;;38.92;24.08;;;;;;;;;;5018265;28;20032;-69
2022/03/10 08:33:12;;;;;;;42.90;26.00;;;;;;;;;;5017752;28;20550;-69
2022/03/10 08:35:38;;;;;;;45.00;27.15;;;;;;;;;;5015961;28;20522;-68
2022/03/10 08:38:05;;;;;;;45.47;27.33;;;;;;;;;;5018311;28;20091;-68
2022/03/10 08:40:31;;;;;;;45.78;26.65;;;;;;;;;;5010247;28;20033;-69
2022/03/10 08:42:56;;;;;;;41.92;24.67;;;;;;;;;;5018503;28;20661;-67
2022/03/10 08:45:25;;;;;;;44.60;26.38;;;;;;;;;;5017221;28;20033;-69
2022/03/10 08:47:51;;;;;;;41.63;25.50;;;;;;;;;;5016129;28;20029;-68
2022/03/10 08:50:16;;;;;;;42.08;25.95;;;;;;;;;;5018376;28;20036;-69
2022/03/10 08:52:41;;;;;;;38.47;23.90;;;;;;;;;;5009723;28;20038;-69
2022/03/10 08:55:07;;;;;;;41.50;24.25;;;;;;;;;;5016693;28;20189;-68
2022/03/10 08:57:33;;;;;;;37.03;23.17;;;;;;;;;;5015760;28;20107;-68
2022/03/10 08:59:58;;;;;;;37.72;23.88;;;;;;;;;;5016827;28;20049;-68
2022/03/10 09:02:24;;;;;;;40.33;24.58;;;;;;;;;;5019411;28;20662;-67
2022/03/10 09:04:50;;;;;;;38.90;24.35;;;;;;;;;;5018253;28;20068;-69
2022/03/10 09:07:15;;;;;;;43.97;25.63;;;;;;;;;;5018256;28;20065;-67
2022/03/10 09:09:41;;;;;;;40.95;25.70;;;;;;;;;;5015703;28;20044;-68
2022/03/10 09:12:07;;;;;;;40.55;24.38;;;;;;;;;;5017821;28;20056;-68
2022/03/10 09:14:32;;;;;;;48.58;28.02;;;;;;;;;;5017896;28;20032;-69
2022/03/10 09:16:57;;;;;;;44.53;25.77;;;;;;;;;;4990471;28;20036;-66
2022/03/10 09:19:23;;;;;;;46.08;25.30;;;;;;;;;;5016348;28;20568;-68
2022/03/10 09:21:49;;;;;;;40.42;24.75;;;;;;;;;;5017094;28;20443;-67
2022/03/10 09:24:14;;;;;;;38.25;24.05;;;;;;;;;;5016625;28;20041;-68
2022/03/10 09:26:39;;;;;;;42.53;25.15;;;;;;;;;;5017961;28;20057;-68
2022/03/10 09:29:05;;;;;;;41.90;24.67;;;;;;;;;;4993163;28;20134;-68
2022/03/10 09:31:33;;;;;;;42.85;23.08;;;;;;;;;;5018146;28;20593;-68
2022/03/10 09:33:58;;;;;;;39.38;23.58;;;;;;;;;;5010125;28;20694;-68
2022/03/10 09:36:26;;;;;;;43.08;22.88;;;;;;;;;;5015419;28;20044;-69
2022/03/10 09:38:55;;;;;;;38.58;23.35;;;;;;;;;;5014136;28;20029;-71
2022/03/10 09:41:22;;;;;;;37.97;23.08;;;;;;;;;;5016378;28;20815;-68
2022/03/10 09:43:51;;;;;;;38.92;23.73;;;;;;;;;;5013547;28;20141;-67
2022/03/10 09:46:16;;;;;;;36.60;22.35;;;;;;;;;;5016136;28;20033;-69
2022/03/10 09:48:44;;;;;;;40.42;22.25;;;;;;;;;;5009062;28;20036;-68
2022/03/10 09:51:10;;;;;;;39.13;23.38;;;;;;;;;;5027082;28;20032;-69
2022/03/10 09:53:39;;;;;;;40.85;24.02;;;;;;;;;;5016104;28;20028;-68
2022/03/10 09:56:05;;;;;;;38.42;23.58;;;;;;;;;;5009469;28;20033;-68
2022/03/10 09:58:35;;;;;;;36.75;22.38;;;;;;;;;;5014955;28;20514;-68
2022/03/10 10:01:04;;;;;;;38.20;23.15;;;;;;;;;;5016043;28;21090;-67
2022/03/10 10:03:29;;;;;;;40.67;24.23;;;;;;;;;;5015766;28;20033;-67
2022/03/10 10:05:58;;;;;;;35.97;22.63;;;;;;;;;;5015334;28;20291;-68
2022/03/10 10:08:24;;;;;;;40.35;23.20;;;;;;;;;;5007195;28;20245;-69
2022/03/10 10:10:51;;;;;;;35.67;22.83;;;;;;;;;;5015460;28;20029;-69
2022/03/10 10:13:29;;;;;;;35.72;22.90;;;;;;;;;;5017539;28;20025;-69
2022/03/10 10:15:56;;;;;;;38.25;23.02;;;;;;;;;;5017386;28;20040;-69
2022/03/10 10:18:22;;;;;;;36.35;22.48;;;;;;;;;;5016319;28;20029;-68
2022/03/10 10:20:52;;;;;;;37.78;22.20;;;;;;;;;;5008336;28;20071;-68
2022/03/10 10:23:21;;;;;;;40.40;23.67;;;;;;;;;;5012667;28;20036;-69
2022/03/10 10:25:57;;;;;;;38.95;23.30;;;;;;;;;;5017341;28;20737;-69
2022/03/10 10:28:28;;;;;;;44.20;24.17;;;;;;;;;;5016844;28;20029;-69
2022/03/10 10:30:56;;;;;;;39.03;23.73;;;;;;;;;;5016141;28;20481;-69
2022/03/10 10:33:21;;;;;;;38.72;22.90;;;;;;;;;;5016042;28;20558;-69
2022/03/10 10:35:47;;;;;;;37.22;22.75;;;;;;;;;;5017253;28;20025;-69
2022/03/10 10:38:27;;;;;;;36.47;23.05;;;;;;;;;;5017854;28;20030;-70
2022/03/10 10:41:12;;;;;;;37.72;22.90;;;;;;;;;;5015993;28;20083;-68
2022/03/10 10:43:49;;;;;;;38.10;23.13;;;;;;;;;;5016280;28;20048;-68
2022/03/10 10:46:30;;;;;;;35.95;22.52;;;;;;;;;;5016949;28;20033;-68
2022/03/10 10:48:57;;;;;;;40.35;23.98;;;;;;;;;;5016646;28;20484;-67
2022/03/10 10:51:45;;;;;;;40.58;23.83;;;;;;;;;;5016763;28;20086;-69
2022/03/10 10:54:20;;;;;;;36.50;23.05;;;;;;;;;;5008256;28;20032;-67
2022/03/10 10:56:49;;;;;;;37.47;22.70;;;;;;;;;;5016739;28;20067;-68
2022/03/10 10:59:31;;;;;;;34.65;22.23;;;;;;;;;;5015845;28;20507;-68
2022/03/10 11:02:05;;;;;;;43.08;24.23;;;;;;;;;;5014844;28;20132;-68
2022/03/10 11:04:33;;;;;;;36.95;22.60;;;;;;;;;;5016715;28;20682;-70
2022/03/10 11:06:59;;;;;;;39.42;22.77;;;;;;;;;;5017143;28;20029;-69
2022/03/10 11:09:25;;;;;;;33.95;21.27;;;;;;;;;;5013226;28;20033;-68
2022/03/10 11:11:51;;;;;;;38.13;23.33;;;;;;;;;;5016924;28;20075;-67
2022/03/10 11:14:16;;;;;;;36.70;22.75;;;;;;;;;;5016091;28;20283;-68
2022/03/10 11:16:43;;;;;;;33.25;21.08;;;;;;;;;;5030974;28;20668;-68
2022/03/10 11:19:11;;;;;;;35.03;22.20;;;;;;;;;;5015780;28;20151;-68
2022/03/10 11:21:41;;;;;;;38.15;23.42;;;;;;;;;;5016426;28;20029;-68
2022/03/10 11:24:25;;;;;;;37.10;21.75;;;;;;;;;;5015227;28;20545;-68
2022/03/10 11:27:08;;;;;;;30.95;19.90;;;;;;;;;;5015889;28;20111;-70
2022/03/10 11:29:34;;;;;;;28.65;19.58;;;;;;;;;;5015488;28;20518;-69
2022/03/10 11:31:59;;;;;;;31.20;21.05;;;;;;;;;;5015266;28;20021;-67
2022/03/10 11:34:47;;;;;;;29.42;20.30;;;;;;;;;;5029497;28;20044;-68
2022/03/10 11:37:13;;;;;;;32.42;20.85;;;;;;;;;;5014626;28;20049;-68
2022/03/10 11:39:54;;;;;;;36.08;21.17;;;;;;;;;;5014439;28;20033;-68
2022/03/10 11:42:24;;;;;;;34.35;21.10;;;;;;;;;;5014327;28;20047;-68
2022/03/10 11:45:04;;;;;;;35.05;21.08;;;;;;;;;;5015293;28;20029;-68
2022/03/10 11:47:29;;;;;;;29.95;21.10;;;;;;;;;;5012324;28;20025;-70
2022/03/10 11:49:57;;;;;;;31.70;19.88;;;;;;;;;;5014366;28;20052;-69
2022/03/10 11:52:23;;;;;;;30.33;20.00;;;;;;;;;;5016526;28;20037;-70
2022/03/10 11:55:05;;;;;;;31.70;19.60;;;;;;;;;;5017195;28;20291;-69
2022/03/10 11:57:40;;;;;;;34.67;21.77;;;;;;;;;;5009267;28;20636;-68
2022/03/10 12:00:06;;;;;;;32.25;20.35;;;;;;;;;;5014870;28;20851;-69
2022/03/10 12:02:41;;;;;;;29.02;19.15;;;;;;;;;;5005061;28;20038;-69
2022/03/10 12:05:08;;;;;;;32.00;19.58;;;;;;;;;;5017966;28;20040;-68
2022/03/10 12:07:33;;;;;;;32.42;19.30;;;;;;;;;;5017090;28;20029;-68
2022/03/10 12:10:09;;;;;;;30.67;19.40;;;;;;;;;;5017886;28;20025;-71
2022/03/10 12:12:37;;;;;;;30.67;20.23;;;;;;;;;;5011109;28;20159;-70
2022/03/10 12:15:23;;;;;;;35.55;21.10;;;;;;;;;;5015195;28;20017;-69
2022/03/10 12:17:54;;;;;;;30.55;19.17;;;;;;;;;;5012848;28;20041;-69
2022/03/10 12:20:23;;;;;;;27.48;18.42;;;;;;;;;;5014872;28;20140;-67
2022/03/10 12:23:03;;;;;;;30.75;19.55;;;;;;;;;;5017152;28;20025;-69
2022/03/10 12:25:50;;;;;;;28.25;18.25;;;;;;;;;;5018116;28;20290;-68
2022/03/10 12:28:22;;;;;;;30.23;17.50;;;;;;;;;;5016450;28;20105;-69
2022/03/10 12:30:48;;;;;;;30.50;18.15;;;;;;;;;;5016795;28;20147;-69
2022/03/10 12:33:20;;;;;;;31.20;17.95;;;;;;;;;;5010285;28;20847;-69
2022/03/10 12:35:46;;;;;;;30.15;18.55;;;;;;;;;;5017387;28;20164;-69
2022/03/10 12:38:11;;;;;;;29.58;19.33;;;;;;;;;;5017971;28;20204;-69
2022/03/10 12:40:37;;;;;;;28.75;17.95;;;;;;;;;;4990063;28;20029;-69
2022/03/10 12:43:06;;;;;;;29.30;17.88;;;;;;;;;;5015309;28;20032;-69
2022/03/10 12:45:31;;;;;;;30.02;18.63;;;;;;;;;;5017853;28;20025;-69
2022/03/10 12:48:15;;;;;;;29.83;17.40;;;;;;;;;;5015839;28;21894;-68
2022/03/10 12:50:42;;;;;;;33.85;18.73;;;;;;;;;;4993841;28;20033;-69
2022/03/10 12:53:11;;;;;;;29.90;18.63;;;;;;;;;;5015830;28;20091;-68
2022/03/10 12:55:38;;;;;;;27.17;17.77;;;;;;;;;;5016521;28;20245;-68
2022/03/10 12:58:03;;;;;;;28.27;17.20;;;;;;;;;;5010401;28;20025;-67
2022/03/10 13:00:28;;;;;;;27.75;16.73;;;;;;;;;;5016465;28;20065;-68
2022/03/10 13:02:57;;;;;;;25.48;17.48;;;;;;;;;;5017606;28;20376;-68
2022/03/10 13:05:23;;;;;;;29.90;17.55;;;;;;;;;;5010305;28;20033;-68
2022/03/10 13:07:49;;;;;;;31.55;18.38;;;;;;;;;;5017965;28;20025;-68
2022/03/10 13:10:16;;;;;;;30.08;19.65;;;;;;;;;;5014495;28;20034;-68
2022/03/10 13:12:42;;;;;;;29.17;17.52;;;;;;;;;;5017616;28;20258;-69
2022/03/10 13:15:08;;;;;;;29.38;19.10;;;;;;;;;;5009185;28;20321;-68
2022/03/10 13:17:34;;;;;;;29.40;18.50;;;;;;;;;;5025570;28;20459;-68
2022/03/10 13:19:59;;;;;;;31.23;17.40;;;;;;;;;;5009072;28;21912;-68
2022/03/10 13:22:24;;;;;;;37.88;20.27;;;;;;;;;;5016363;28;20048;-68
2022/03/10 13:24:52;;;;;;;34.75;19.00;;;;;;;;;;5015992;28;20036;-68
2022/03/10 13:27:22;;;;;;;29.77;18.00;;;;;;;;;;5016962;28;20029;-68
2022/03/10 13:29:47;;;;;;;27.60;18.00;;;;;;;;;;5015975;28;20033;-69
2022/03/10 13:32:13;;;;;;;27.45;17.27;;;;;;;;;;5012835;28;20029;-67
2022/03/10 13:34:39;;;;;;;32.78;17.83;;;;;;;;;;5006546;28;20025;-68
2022/03/10 13:37:09;;;;;;;31.10;17.98;;;;;;;;;;5016853;28;20041;-69
2022/03/10 13:39:36;;;;;;;32.50;18.38;;;;;;;;;;5019363;28;20560;-69
2022/03/10 13:42:02;;;;;;;30.52;17.13;;;;;;;;;;4991359;28;20620;-68
2022/03/10 13:44:31;;;;;;;30.63;17.40;;;;;;;;;;5008358;28;20787;-69
2022/03/10 13:47:04;;;;;;;30.10;17.42;;;;;;;;;;5008967;28;20073;-71
2022/03/10 13:49:29;;;;;;;25.95;16.33;;;;;;;;;;5015975;28;20546;-69
2022/03/10 13:51:54;;;;;;;27.25;15.60;;;;;;;;;;5016163;28;20025;-69
2022/03/10 13:54:20;;;;;;;27.90;16.73;;;;;;;;;;5016385;28;20074;-69
2022/03/10 13:56:46;;;;;;;32.10;17.48;;;;;;;;;;5015343;28;20037;-69
2022/03/10 13:59:13;;;;;;;28.77;17.05;;;;;;;;;;5009595;28;20064;-70
2022/03/10 14:01:39;;;;;;;28.83;17.27;;;;;;;;;;5009519;28;20359;-69
2022/03/10 14:04:13;;;;;;;25.65;16.48;;;;;;;;;;5009042;28;20032;-70
2022/03/10 14:06:44;;;;;;;26.08;17.08;;;;;;;;;;5017760;28;20029;-68
2022/03/10 14:09:20;;;;;;;28.40;17.60;;;;;;;;;;5016143;28;20060;-68
2022/03/10 14:11:46;;;;;;;35.72;19.67;;;;;;;;;;5014255;28;20033;-69
2022/03/10 14:14:12;;;;;;;29.45;17.33;;;;;;;;;;5014231;28;20116;-69
2022/03/10 14:16:48;;;;;;;30.40;19.38;;;;;;;;;;5014360;28;20037;-69
2022/03/10 14:19:21;;;;;;;26.52;16.80;;;;;;;;;;5016469;28;20131;-69
2022/03/10 14:21:50;;;;;;;27.15;17.70;;;;;;;;;;5009913;28;20722;-70